Time;durP1;ratioP1;P1;durP2;ratioP2;P2;SDS_P1;SDS_P2;PMS_P1;PMS_P2;Temp;Humidity;BMP_temperature;BMP_pressure;BME280_temperature;BME280_humidity;BME280_pressure;Samples;Min_cycle;Max_cycle;Signal;HPM_P1;HPM_P2
2022/01/02 00:02:28;;;;;;;;;4.00;4.00;;;;;18.42;67.03;101774.53;5071671;28;9887;-60
2022/01/02 00:05:05;;;;;;;;;5.00;5.00;;;;;18.37;67.14;101763.06;5071338;28;9346;-60
2022/01/02 00:07:41;;;;;;;;;6.00;5.00;;;;;18.36;67.00;101766.59;5068783;28;9264;-60
2022/01/02 00:10:07;;;;;;;;;3.67;3.67;;;;;18.33;66.91;101746.31;5063575;28;9162;-60
2022/01/02 00:12:35;;;;;;;;;4.00;4.00;;;;;18.35;66.89;101734.00;5071170;28;9111;-60
2022/01/02 00:15:04;;;;;;;;;4.00;3.00;;;;;18.35;67.05;101720.75;5062483;28;9160;-60
2022/01/02 00:17:30;;;;;;;;;3.00;3.00;;;;;18.28;67.52;101723.38;5069854;28;9174;-60
2022/01/02 00:19:58;;;;;;;;;4.00;4.00;;;;;18.28;67.51;101718.97;5068848;28;9111;-60
2022/01/02 00:22:31;;;;;;;;;4.67;4.67;;;;;18.27;67.29;101722.50;5070677;28;9154;-60
2022/01/02 00:24:57;;;;;;;;;5.00;5.00;;;;;18.33;67.19;101727.78;5070935;28;9265;-61
2022/01/02 00:27:24;;;;;;;;;5.25;4.25;;;;;18.35;66.81;101728.69;5070730;28;9237;-60
2022/01/02 00:29:50;;;;;;;;;5.00;5.00;;;;;18.40;66.72;101725.19;5067544;28;8814;-60
2022/01/02 00:32:17;;;;;;;;;3.33;3.33;;;;;18.37;66.86;101728.69;5071431;28;9241;-62
2022/01/02 00:34:43;;;;;;;;;4.00;3.00;;;;;18.37;66.85;101727.84;5070653;28;8776;-60
2022/01/02 00:37:08;;;;;;;;;4.00;4.00;;;;;18.33;67.00;101725.16;5070252;28;9435;-60
2022/01/02 00:39:38;;;;;;;;;5.00;5.00;;;;;18.33;67.26;101732.22;5067697;28;9371;-59
2022/01/02 00:42:12;;;;;;;;;4.00;4.00;;;;;18.30;66.86;101703.09;5069827;28;9315;-60
2022/01/02 00:45:02;;;;;;;;;4.00;4.00;;;;;18.40;66.77;101702.28;5071099;28;9159;-60
2022/01/02 00:47:36;;;;;;;;;3.00;3.00;;;;;18.28;67.21;101695.19;5069720;28;9274;-60
2022/01/02 00:50:08;;;;;;;;;4.00;4.00;;;;;18.37;66.80;101683.75;5067095;28;9281;-60
2022/01/02 00:52:36;;;;;;;;;5.00;5.00;;;;;18.32;67.01;101696.97;5070845;28;9087;-60
2022/01/02 00:55:03;;;;;;;;;1.67;1.67;;;;;18.30;67.36;101696.06;5062243;28;9225;-60
2022/01/02 00:57:38;;;;;;;;;3.33;3.33;;;;;18.30;67.16;101692.53;5068589;28;9200;-60
2022/01/02 01:00:14;;;;;;;;;5.75;5.75;;;;;18.28;67.06;101684.63;5068423;28;9245;-60
2022/01/02 01:02:47;;;;;;;;;4.33;4.00;;;;;18.30;67.05;101674.91;5070850;28;9391;-60
2022/01/02 01:05:23;;;;;;;;;3.00;3.00;;;;;18.41;66.75;101677.59;5071379;28;9968;-60
2022/01/02 01:07:52;;;;;;;;;5.00;5.00;;;;;18.35;67.06;101688.16;5070267;28;9221;-60
2022/01/02 01:10:19;;;;;;;;;5.00;5.00;;;;;18.30;67.33;101669.63;5074324;28;9430;-60
2022/01/02 01:12:49;;;;;;;;;4.67;4.67;;;;;18.23;67.46;101673.13;5074745;28;10024;-60
2022/01/02 01:15:17;;;;;;;;;5.33;4.00;;;;;18.25;67.39;101658.19;5074943;28;9229;-60
2022/01/02 01:17:42;;;;;;;;;4.33;4.33;;;;;18.21;67.19;101666.97;5070924;28;8935;-60
2022/01/02 01:20:12;;;;;;;;;5.67;5.67;;;;;18.14;67.90;101666.94;5073310;28;9099;-60
2022/01/02 01:22:38;;;;;;;;;3.67;3.67;;;;;18.18;67.66;101634.38;5074488;28;8795;-60
2022/01/02 01:25:07;;;;;;;;;3.00;3.00;;;;;18.24;67.32;101613.22;5073782;28;9260;-60
2022/01/02 01:27:33;;;;;;;;;3.67;3.67;;;;;18.25;67.19;101602.66;5072739;28;8787;-60
2022/01/02 01:29:58;;;;;;;;;4.00;4.00;;;;;18.33;67.15;101589.47;5071189;28;9091;-60
2022/01/02 01:32:23;;;;;;;;;5.00;4.67;;;;;18.38;66.79;101589.44;5074055;28;8857;-59
2022/01/02 01:34:48;;;;;;;;;5.00;4.00;;;;;18.27;67.10;101592.06;5073934;28;8923;-60
2022/01/02 01:37:14;;;;;;;;;4.00;4.00;;;;;18.30;66.94;101597.38;5073519;28;9951;-60
2022/01/02 01:39:39;;;;;;;;;4.00;4.00;;;;;18.24;67.37;101597.38;5068990;28;8843;-60
2022/01/02 01:42:08;;;;;;;;;5.00;4.00;;;;;18.23;67.20;101607.06;5074416;28;8803;-59
2022/01/02 01:44:52;;;;;;;;;3.00;3.00;;;;;18.14;67.52;101617.63;5074063;28;8775;-60
2022/01/02 01:47:17;;;;;;;;;3.67;3.67;;;;;18.19;67.67;101605.28;5073545;28;9385;-60
2022/01/02 01:49:43;;;;;;;;;5.00;4.67;;;;;18.18;67.33;101598.22;5068617;28;9253;-60
2022/01/02 01:52:08;;;;;;;;;4.67;4.00;;;;;18.27;67.28;101595.59;5073346;28;8791;-60
2022/01/02 01:54:33;;;;;;;;;6.75;6.75;;;;;18.28;67.14;101588.56;5073025;28;8836;-60
2022/01/02 01:57:02;;;;;;;;;3.67;3.67;;;;;18.29;66.94;101582.41;5073790;28;8811;-60
2022/01/02 01:59:27;;;;;;;;;2.67;2.67;;;;;18.24;66.98;101589.44;5073548;28;8776;-60
2022/01/02 02:01:56;;;;;;;;;6.00;4.33;;;;;18.29;66.98;101585.94;5073434;28;9362;-60
2022/01/02 02:04:22;;;;;;;;;5.00;5.00;;;;;18.20;67.20;101570.03;5074037;28;8764;-60
2022/01/02 02:06:47;;;;;;;;;3.00;3.00;;;;;18.18;67.30;101582.34;5073000;28;9248;-60
2022/01/02 02:09:12;;;;;;;;;3.67;3.67;;;;;18.26;67.32;101574.44;5073665;28;8775;-60
2022/01/02 02:11:39;;;;;;;;;3.00;3.00;;;;;18.38;66.59;101578.88;5073875;28;8774;-59
2022/01/02 02:14:09;;;;;;;;;5.00;4.67;;;;;18.20;67.13;101566.50;5072973;28;8791;-59
2022/01/02 02:16:36;;;;;;;;;3.67;3.67;;;;;18.16;67.50;101551.53;5072711;28;9331;-60
2022/01/02 02:19:05;;;;;;;;;5.33;5.33;;;;;18.30;67.09;101552.44;5065238;28;9259;-59
2022/01/02 02:21:36;;;;;;;;;4.67;4.67;;;;;18.20;67.39;101551.53;5073147;28;9159;-59
2022/01/02 02:24:04;;;;;;;;;6.33;5.00;;;;;18.12;67.47;101541.81;5073460;28;9354;-60
2022/01/02 02:26:32;;;;;;;;;6.67;5.00;;;;;18.19;67.38;101572.66;5073365;28;9443;-60
2022/01/02 02:28:58;;;;;;;;;5.00;4.00;;;;;18.11;67.48;101561.22;5072877;28;9382;-60
2022/01/02 02:31:24;;;;;;;;;5.33;5.33;;;;;18.16;67.56;101567.38;5073119;28;9091;-60
2022/01/02 02:33:49;;;;;;;;;4.67;4.33;;;;;18.17;67.41;101559.47;5072880;28;8823;-60
2022/01/02 02:36:14;;;;;;;;;2.00;2.00;;;;;18.19;67.13;101547.13;5072079;28;8823;-60
2022/01/02 02:38:40;;;;;;;;;4.00;4.00;;;;;18.20;67.19;101548.00;5072925;28;8894;-60
2022/01/02 02:41:06;;;;;;;;;5.33;5.33;;;;;18.15;67.58;101539.19;5073103;28;8791;-59
2022/01/02 02:43:40;;;;;;;;;6.00;5.00;;;;;18.19;67.43;101527.75;5072960;28;9554;-60
2022/01/02 02:49:02;;;;;;;;;7.00;5.67;;;;;18.07;67.83;101517.19;5072041;28;9072;-60
2022/01/02 02:51:44;;;;;;;;;3.00;3.00;;;;;18.15;67.60;101513.63;5073279;28;9171;-60
2022/01/02 02:54:15;;;;;;;;;4.67;4.67;;;;;18.16;67.08;101511.88;5072847;28;9905;-59
2022/01/02 02:56:53;;;;;;;;;5.00;4.00;;;;;18.14;67.36;101503.09;5071988;28;9358;-59
2022/01/02 02:59:19;;;;;;;;;2.33;2.33;;;;;18.24;67.08;101499.56;5073134;28;9083;-59
2022/01/02 03:01:45;;;;;;;;;3.33;3.33;;;;;18.14;67.70;101500.44;5072552;28;9740;-59
2022/01/02 03:04:10;;;;;;;;;3.67;3.67;;;;;18.23;67.06;101505.72;5072526;28;8775;-60
2022/01/02 03:06:35;;;;;;;;;4.00;3.00;;;;;18.19;67.32;101506.59;5072736;28;8772;-60
2022/01/02 03:09:08;;;;;;;;;3.00;3.00;;;;;18.15;67.58;101511.00;5072448;28;8772;-60
2022/01/02 03:11:33;;;;;;;;;4.00;4.00;;;;;18.16;67.35;101511.88;5072262;28;8768;-60
2022/01/02 03:13:59;;;;;;;;;6.00;5.00;;;;;18.19;67.10;101510.13;5072335;28;9249;-60
2022/01/02 03:16:24;;;;;;;;;4.33;4.00;;;;;18.32;66.92;101511.03;5072177;28;8757;-60
2022/01/02 03:18:49;;;;;;;;;4.67;3.67;;;;;18.25;66.83;101496.94;5071563;28;8872;-60
2022/01/02 03:21:15;;;;;;;;;3.33;3.33;;;;;18.32;66.93;101501.34;5072528;28;8760;-60
2022/01/02 03:23:41;;;;;;;;;7.00;4.33;;;;;18.28;67.01;101486.34;5071489;28;8775;-59
2022/01/02 03:26:06;;;;;;;;;5.00;3.33;;;;;18.21;67.17;101487.25;5072321;28;8779;-60
2022/01/02 03:28:32;;;;;;;;;3.00;3.00;;;;;18.12;67.35;101484.56;5072188;28;8840;-59
2022/01/02 03:30:58;;;;;;;;;4.67;3.67;;;;;18.15;67.66;101475.75;5071378;28;8772;-60
2022/01/02 03:33:23;;;;;;;;;6.00;6.00;;;;;18.26;66.91;101489.84;5072269;28;8808;-59
2022/01/02 03:35:48;;;;;;;;;5.00;5.00;;;;;18.26;66.78;101474.88;5071315;28;9625;-59
2022/01/02 03:38:14;;;;;;;;;3.00;3.00;;;;;18.13;67.27;101472.25;5071068;28;8775;-59
2022/01/02 03:40:39;;;;;;;;;3.00;3.00;;;;;18.16;67.38;101469.59;5070970;28;8841;-60
2022/01/02 03:43:05;;;;;;;;;5.67;4.00;;;;;18.33;66.57;101452.00;5071859;28;8802;-61
2022/01/02 03:45:30;;;;;;;;;5.00;5.00;;;;;18.19;67.06;101449.34;5071235;28;8795;-59
2022/01/02 03:47:55;;;;;;;;;3.00;3.00;;;;;18.19;67.47;101445.81;5071556;28;8776;-60
2022/01/02 03:50:24;;;;;;;;;3.00;3.00;;;;;18.17;67.42;101439.66;5071912;28;8776;-60
2022/01/02 03:52:50;;;;;;;;;4.33;4.33;;;;;18.31;66.84;101441.41;5070698;28;8873;-61
2022/01/02 03:55:15;;;;;;;;;4.67;4.00;;;;;18.21;67.36;101439.66;5071561;28;9242;-60
2022/01/02 03:57:40;;;;;;;;;4.00;4.00;;;;;18.26;66.91;101444.91;5071223;28;8918;-58
2022/01/02 04:00:10;;;;;;;;;3.00;2.67;;;;;18.15;67.17;101441.41;5071297;28;8768;-58
2022/01/02 04:02:37;;;;;;;;;4.00;4.00;;;;;18.16;67.38;101435.25;5071789;28;8856;-59
2022/01/02 04:05:05;;;;;;;;;4.67;3.67;;;;;18.24;67.13;101426.44;5071340;28;9161;-58
2022/01/02 04:07:30;;;;;;;;;5.00;3.00;;;;;18.29;66.81;101429.97;5070895;28;9278;-58
2022/01/02 04:10:00;;;;;;;;;4.00;4.00;;;;;18.34;66.55;101428.19;5071340;28;9176;-59
2022/01/02 04:12:26;;;;;;;;;3.00;3.00;;;;;18.25;66.99;101427.31;5071313;28;8775;-59
2022/01/02 04:14:51;;;;;;;;;4.67;3.67;;;;;18.19;67.08;101416.72;5070583;28;9168;-59
2022/01/02 04:17:16;;;;;;;;;3.33;3.33;;;;;18.19;67.18;101416.72;5071411;28;8752;-59
2022/01/02 04:19:41;;;;;;;;;4.33;3.00;;;;;18.18;67.25;101407.06;5071155;28;9570;-59
2022/01/02 04:22:07;;;;;;;;;4.00;4.00;;;;;18.30;66.58;101410.56;5070773;28;8779;-59
2022/01/02 04:24:32;;;;;;;;;4.00;4.00;;;;;18.21;66.86;101407.94;5071541;28;8780;-59
2022/01/02 04:26:57;;;;;;;;;4.33;4.33;;;;;18.24;67.13;101412.34;5070067;28;8776;-59
2022/01/02 04:29:22;;;;;;;;;2.00;2.00;;;;;18.27;66.70;101412.31;5071249;28;8776;-61
2022/01/02 04:31:48;;;;;;;;;5.00;5.00;;;;;18.27;66.96;101405.28;5071127;28;8807;-60
2022/01/02 04:34:13;;;;;;;;;7.00;4.00;;;;;18.24;67.18;101407.94;5069409;28;8899;-60
2022/01/02 04:36:38;;;;;;;;;4.00;3.33;;;;;18.33;66.57;101394.69;5071029;28;8842;-61
2022/01/02 04:39:06;;;;;;;;;4.00;4.00;;;;;18.16;67.10;101391.19;5070942;28;8784;-61
2022/01/02 04:41:31;;;;;;;;;3.33;3.33;;;;;18.16;67.13;101382.38;5070004;28;8763;-61
2022/01/02 04:43:57;;;;;;;;;4.00;3.00;;;;;18.12;67.40;101377.97;5070997;28;9270;-61
2022/01/02 04:46:23;;;;;;;;;2.00;2.00;;;;;18.19;67.13;101377.09;5070297;28;8880;-58
2022/01/02 04:48:48;;;;;;;;;3.00;3.00;;;;;18.29;67.08;101377.09;5070340;28;9089;-61
2022/01/02 04:51:13;;;;;;;;;4.33;4.33;;;;;18.33;66.60;101364.75;5071209;28;8787;-61
2022/01/02 04:53:46;;;;;;;;;3.00;3.00;;;;;18.26;66.94;101355.06;5070876;28;8827;-61
2022/01/02 04:56:17;;;;;;;;;4.00;4.00;;;;;18.20;66.97;101357.72;5070502;28;8812;-61
2022/01/02 04:58:43;;;;;;;;;4.67;3.00;;;;;18.20;66.97;101352.44;5070538;28;9095;-60
2022/01/02 05:01:11;;;;;;;;;3.00;2.67;;;;;18.24;66.98;101340.97;5070926;28;9165;-58
2022/01/02 05:03:43;;;;;;;;;4.00;4.00;;;;;18.28;66.88;101338.31;5070520;28;8848;-58
2022/01/02 05:06:09;;;;;;;;;4.00;4.00;;;;;18.26;66.69;101328.63;5070883;28;9007;-58
2022/01/02 05:08:35;;;;;;;;;4.67;3.00;;;;;18.30;66.47;101325.09;5070782;28;9167;-60
2022/01/02 05:11:03;;;;;;;;;6.00;6.00;;;;;18.23;66.72;101320.69;5062084;28;9539;-60
2022/01/02 05:13:28;;;;;;;;;2.33;2.33;;;;;18.20;66.98;101318.97;5070691;28;8905;-59
2022/01/02 05:15:54;;;;;;;;;3.00;3.00;;;;;18.32;66.41;101308.34;5070162;28;9309;-58
2022/01/02 05:18:19;;;;;;;;;2.67;2.67;;;;;18.35;66.38;101311.00;5070325;28;9582;-58
2022/01/02 05:20:47;;;;;;;;;2.00;2.00;;;;;18.23;67.08;101297.78;5070494;28;9573;-58
2022/01/02 05:23:16;;;;;;;;;3.00;3.00;;;;;18.15;67.17;101314.53;5070018;28;8783;-58
2022/01/02 05:25:42;;;;;;;;;3.00;3.00;;;;;18.23;66.90;101294.28;5070103;28;9246;-60
2022/01/02 05:28:11;;;;;;;;;3.00;3.00;;;;;18.21;66.97;101285.47;5070755;28;9172;-59
2022/01/02 05:30:38;;;;;;;;;3.00;3.00;;;;;18.24;67.07;101275.78;5069894;28;9115;-59
2022/01/02 05:33:04;;;;;;;;;3.00;3.00;;;;;18.18;66.94;101277.56;5070160;28;9210;-59
2022/01/02 05:35:31;;;;;;;;;2.00;2.00;;;;;18.34;66.57;101260.75;5070531;28;9022;-59
2022/01/02 05:37:56;;;;;;;;;2.00;2.00;;;;;18.28;66.78;101258.16;5069422;28;9110;-59
2022/01/02 05:40:21;;;;;;;;;3.00;3.00;;;;;18.19;67.11;101255.50;5070646;28;9179;-59
2022/01/02 05:42:47;;;;;;;;;4.00;3.00;;;;;18.17;67.08;101250.25;5070054;28;8787;-59
2022/01/02 05:45:12;;;;;;;;;3.00;3.00;;;;;18.33;66.63;101244.00;5069874;28;8825;-59
2022/01/02 05:47:38;;;;;;;;;3.00;3.00;;;;;18.18;67.07;101238.78;5070581;28;8889;-59
2022/01/02 05:50:04;;;;;;;;;2.33;2.33;;;;;18.23;66.86;101238.75;5069876;28;8763;-59
2022/01/02 05:52:31;;;;;;;;;3.67;3.67;;;;;18.22;66.96;101229.09;5072813;28;9201;-59
2022/01/02 05:54:56;;;;;;;;;4.00;4.00;;;;;18.33;66.36;101235.22;5073892;28;9158;-59
2022/01/02 05:57:22;;;;;;;;;2.67;2.00;;;;;18.18;66.62;101220.28;5073656;28;9114;-60
2022/01/02 05:59:47;;;;;;;;;4.33;3.67;;;;;18.29;66.39;101217.63;5073074;28;8841;-60
2022/01/02 06:02:12;;;;;;;;;2.00;2.00;;;;;18.26;66.50;101217.59;5073887;28;8776;-60
2022/01/02 06:04:38;;;;;;;;;2.33;2.33;;;;;18.30;66.48;101203.50;5073702;28;8845;-60
2022/01/02 06:07:04;;;;;;;;;3.67;3.33;;;;;18.20;66.83;101209.72;5073000;28;8845;-59
2022/01/02 06:09:35;;;;;;;;;4.67;4.00;;;;;18.24;66.78;101207.06;5073907;28;9569;-59
2022/01/02 06:12:01;;;;;;;;;2.00;2.00;;;;;18.35;66.39;101199.97;5073108;28;9167;-59
2022/01/02 06:14:26;;;;;;;;;2.00;2.00;;;;;18.26;66.54;101192.06;5073444;28;9137;-59
2022/01/02 06:16:51;;;;;;;;;4.00;3.00;;;;;18.35;66.39;101184.09;5073519;28;8767;-59
2022/01/02 06:19:17;;;;;;;;;2.00;2.00;;;;;18.26;66.49;101176.19;5073552;28;8775;-59
2022/01/02 06:21:42;;;;;;;;;5.00;5.00;;;;;18.24;66.72;101169.16;5072872;28;8771;-59
2022/01/02 06:24:08;;;;;;;;;3.67;3.00;;;;;18.21;66.69;101153.34;5073643;28;8822;-59
2022/01/02 06:26:33;;;;;;;;;3.00;3.00;;;;;18.26;66.65;101159.47;5071772;28;8797;-59
2022/01/02 06:29:02;;;;;;;;;3.00;2.33;;;;;18.28;66.41;101149.78;5073370;28;9541;-59
2022/01/02 06:31:28;;;;;;;;;2.33;2.33;;;;;18.30;66.47;101148.88;5073362;28;9537;-59
2022/01/02 06:33:53;;;;;;;;;2.00;2.00;;;;;18.35;66.42;101146.22;5072650;28;9117;-59
2022/01/02 06:36:18;;;;;;;;;4.00;4.00;;;;;18.18;66.79;101132.22;5073219;28;8815;-59
2022/01/02 06:38:44;;;;;;;;;4.00;4.00;;;;;18.24;66.75;101129.53;5073088;28;8776;-59
2022/01/02 06:41:11;;;;;;;;;3.00;3.00;;;;;18.19;66.79;101116.34;5072804;28;8886;-59
2022/01/02 06:43:37;;;;;;;;;4.33;3.00;;;;;18.29;66.72;101120.69;5073268;28;8760;-59
2022/01/02 06:46:02;;;;;;;;;4.00;4.00;;;;;18.30;66.51;101121.56;5072684;28;9173;-59
2022/01/02 06:48:27;;;;;;;;;2.33;2.00;;;;;18.25;66.75;101132.19;5072550;28;8787;-59
2022/01/02 06:50:52;;;;;;;;;3.00;3.00;;;;;18.43;66.26;101133.81;5072820;28;8798;-59
2022/01/02 06:53:18;;;;;;;;;2.00;2.00;;;;;18.28;66.20;101132.16;5072660;28;8812;-59
2022/01/02 06:55:43;;;;;;;;;2.33;2.33;;;;;18.22;66.34;101116.31;5072373;28;8882;-59
2022/01/02 06:58:09;;;;;;;;;2.00;2.00;;;;;18.21;66.92;101116.34;5072694;28;8764;-59
2022/01/02 07:00:34;;;;;;;;;2.00;2.00;;;;;18.22;66.65;101102.25;5072743;28;8794;-59
2022/01/02 07:03:02;;;;;;;;;3.00;3.00;;;;;18.18;66.97;101098.72;5071474;28;8795;-59
2022/01/02 07:05:27;;;;;;;;;3.67;3.67;;;;;18.28;66.33;101091.63;5072942;28;8845;-59
2022/01/02 07:07:53;;;;;;;;;3.00;2.00;;;;;18.25;66.75;101097.81;5072331;28;9104;-59
2022/01/02 07:10:18;;;;;;;;;3.33;3.33;;;;;18.31;66.48;101100.41;5072310;28;9551;-59
2022/01/02 07:12:43;;;;;;;;;4.00;4.00;;;;;18.23;66.36;101096.94;5072119;28;9390;-59
2022/01/02 07:15:10;;;;;;;;;3.00;2.00;;;;;18.22;66.37;101105.75;5072577;28;9567;-60
2022/01/02 07:17:35;;;;;;;;;3.33;3.00;;;;;18.23;66.48;101107.50;5072079;28;8763;-60
2022/01/02 07:20:04;;;;;;;;;2.00;2.00;;;;;18.28;66.63;101110.13;5072433;28;9175;-60
2022/01/02 07:22:29;;;;;;;;;2.00;2.00;;;;;18.17;66.55;101115.47;5072180;28;8799;-61
2022/01/02 07:24:55;;;;;;;;;3.00;3.00;;;;;18.20;66.64;101120.75;5071815;28;9209;-60
2022/01/02 07:27:20;;;;;;;;;4.00;3.00;;;;;18.23;66.83;101114.53;5072330;28;8786;-60
2022/01/02 07:29:54;;;;;;;;;3.33;3.33;;;;;18.21;66.65;101114.56;5071413;28;8780;-60
2022/01/02 07:32:20;;;;;;;;;3.00;3.00;;;;;18.25;66.87;101108.38;5072412;28;8814;-60
2022/01/02 07:34:45;;;;;;;;;3.00;3.00;;;;;18.19;66.86;101132.19;5071625;28;9115;-59
2022/01/02 07:37:11;;;;;;;;;2.67;2.67;;;;;18.29;66.10;101126.00;5071373;28;8851;-60
2022/01/02 07:39:36;;;;;;;;;4.33;4.33;;;;;18.31;66.32;101139.19;5072328;28;8803;-60
2022/01/02 07:42:04;;;;;;;;;3.67;3.67;;;;;18.35;66.18;101138.28;5071399;28;8902;-59
2022/01/02 07:44:30;;;;;;;;;2.00;2.00;;;;;18.21;66.30;101117.22;5071566;28;8792;-60
2022/01/02 07:46:55;;;;;;;;;3.00;3.00;;;;;18.21;66.65;101118.97;5071989;28;9125;-60
2022/01/02 07:49:20;;;;;;;;;2.00;2.00;;;;;18.31;66.21;101108.34;5071908;28;8772;-60
2022/01/02 07:51:46;;;;;;;;;2.00;2.00;;;;;18.33;66.58;101118.91;5071187;28;8767;-59
2022/01/02 07:54:12;;;;;;;;;3.33;3.00;;;;;18.36;65.95;101113.59;5072360;28;8818;-60
2022/01/02 07:56:38;;;;;;;;;6.00;4.67;;;;;18.22;66.79;101126.88;5071539;28;8822;-59
2022/01/02 07:59:03;;;;;;;;;3.00;2.50;;;;;18.19;66.61;101118.97;5071049;28;9180;-60
2022/01/02 08:01:29;;;;;;;;;2.33;2.33;;;;;18.25;66.64;101116.31;5071469;28;8876;-59
2022/01/02 08:03:54;;;;;;;;;4.33;4.00;;;;;18.22;66.47;101108.38;5069495;28;8803;-59
2022/01/02 08:06:19;;;;;;;;;2.33;2.33;;;;;18.19;66.82;101102.22;5071094;28;8813;-59
2022/01/02 08:08:45;;;;;;;;;3.00;3.00;;;;;18.21;66.58;101098.72;5071382;28;8845;-59
2022/01/02 08:11:11;;;;;;;;;4.00;4.00;;;;;18.15;66.81;101111.06;5071329;28;8759;-59
2022/01/02 08:13:36;;;;;;;;;3.00;3.00;;;;;18.17;66.93;101111.94;5069962;28;8804;-59
2022/01/02 08:16:02;;;;;;;;;5.00;4.33;;;;;18.15;66.65;101100.50;5069958;28;9772;-59
2022/01/02 08:18:27;;;;;;;;;3.00;3.00;;;;;18.21;66.33;101105.75;5070921;28;8780;-59
2022/01/02 08:20:52;;;;;;;;;3.00;3.00;;;;;18.18;66.53;101104.00;5070657;28;8786;-59
2022/01/02 08:23:17;;;;;;;;;3.00;3.00;;;;;18.18;66.48;101101.34;5069383;28;8830;-59
2022/01/02 08:25:43;;;;;;;;;3.00;3.00;;;;;18.17;66.67;101109.31;5070160;28;8810;-59
2022/01/02 08:28:08;;;;;;;;;3.00;3.00;;;;;18.12;66.87;101085.53;5070966;28;8772;-59
2022/01/02 08:30:33;;;;;;;;;4.00;3.00;;;;;18.15;66.90;101097.84;5071239;28;8752;-59
2022/01/02 08:32:59;;;;;;;;;3.33;3.00;;;;;18.19;66.57;101102.22;5068618;28;8835;-59
2022/01/02 08:35:24;;;;;;;;;2.00;2.00;;;;;18.18;66.69;101093.41;5070396;28;8846;-59
2022/01/02 08:37:49;;;;;;;;;2.33;2.33;;;;;18.16;66.94;101107.53;5070323;28;8819;-59
2022/01/02 08:40:15;;;;;;;;;3.00;3.00;;;;;18.04;67.14;101097.03;5070381;28;8783;-59
2022/01/02 08:42:40;;;;;;;;;4.00;4.00;;;;;18.12;66.96;101101.41;5069061;28;8807;-59
2022/01/02 08:45:06;;;;;;;;;3.00;3.00;;;;;18.27;66.24;101096.03;5070594;28;8795;-59
2022/01/02 08:47:32;;;;;;;;;4.00;4.00;;;;;18.22;66.65;101107.53;5070300;28;8867;-59
2022/01/02 08:49:57;;;;;;;;;2.00;2.00;;;;;18.22;66.74;101102.25;5070773;28;9092;-59
2022/01/02 08:52:23;;;;;;;;;3.67;3.67;;;;;18.23;66.44;101107.50;5068404;28;8815;-60
2022/01/02 08:54:48;;;;;;;;;4.00;4.00;;;;;18.23;66.56;101104.84;5069790;28;8904;-59
2022/01/02 08:57:14;;;;;;;;;2.00;2.00;;;;;18.19;66.30;101096.94;5070805;28;8783;-58
2022/01/02 08:59:42;;;;;;;;;3.33;3.33;;;;;18.19;66.75;101096.94;5070734;28;8874;-58
2022/01/02 09:02:08;;;;;;;;;2.67;2.67;;;;;18.26;66.69;101098.66;5068992;28;8823;-59
2022/01/02 09:04:33;;;;;;;;;4.00;4.00;;;;;18.21;66.53;101093.44;5070539;28;9354;-59
2022/01/02 09:06:58;;;;;;;;;6.00;3.00;;;;;18.17;66.77;101096.97;5070550;28;8768;-59
2022/01/02 09:09:26;;;;;;;;;4.00;3.00;;;;;18.16;66.88;101092.56;5070146;28;8796;-59
2022/01/02 09:11:51;;;;;;;;;3.00;3.00;;;;;18.17;66.69;101104.03;5069279;28;8764;-59
2022/01/02 09:14:17;;;;;;;;;4.00;4.00;;;;;18.14;66.73;101098.75;5069404;28;9214;-59
2022/01/02 09:16:44;;;;;;;;;5.67;4.33;;;;;18.15;66.89;101096.09;5069950;28;8759;-59
2022/01/02 09:19:13;;;;;;;;;4.00;4.00;;;;;18.18;66.73;101100.50;5070789;28;8814;-59
2022/01/02 09:21:38;;;;;;;;;4.33;4.33;;;;;18.17;66.63;101104.91;5070590;28;9175;-59
2022/01/02 09:24:05;;;;;;;;;4.67;4.67;;;;;18.19;66.71;101102.22;5067908;28;9199;-59
2022/01/02 09:26:30;;;;;;;;;5.00;4.00;;;;;18.22;66.48;101105.75;5071639;28;8873;-59
2022/01/02 09:28:55;;;;;;;;;4.00;3.00;;;;;18.18;66.47;101109.28;5074144;28;9169;-60
2022/01/02 09:31:21;;;;;;;;;5.00;4.00;;;;;18.23;66.51;101111.91;5074114;28;8870;-59
2022/01/02 09:33:46;;;;;;;;;6.00;4.00;;;;;18.23;66.49;101120.72;5072659;28;8811;-60
2022/01/02 09:36:12;;;;;;;;;4.00;4.00;;;;;18.22;66.65;101113.66;5073503;28;8871;-60
2022/01/02 09:38:37;;;;;;;;;3.67;3.67;;;;;18.27;66.18;101106.59;5073102;28;8883;-60
2022/01/02 09:41:04;;;;;;;;;5.00;5.00;;;;;18.26;66.21;101115.41;5072858;28;8780;-61
2022/01/02 09:43:30;;;;;;;;;4.00;4.00;;;;;18.29;66.59;101119.81;5073837;28;8807;-60
2022/01/02 09:45:55;;;;;;;;;5.50;5.00;;;;;18.40;66.50;101118.00;5074051;28;9240;-60
2022/01/02 09:48:21;;;;;;;;;7.67;6.00;;;;;18.43;66.83;101120.59;5074014;28;9547;-60
2022/01/02 09:50:47;;;;;;;;;8.00;7.00;;;;;18.43;67.66;101119.72;5073459;28;8767;-60
2022/01/02 09:53:13;;;;;;;;;6.00;5.00;;;;;18.42;68.13;101118.84;5073474;28;9345;-60
2022/01/02 09:55:38;;;;;;;;;8.50;7.00;;;;;18.37;69.02;101107.41;5073554;28;8759;-59
2022/01/02 09:58:10;;;;;;;;;10.00;9.25;;;;;18.44;69.50;101117.09;5073425;28;8768;-60
2022/01/02 10:00:36;;;;;;;;;8.25;7.50;;;;;18.43;70.23;101123.25;5073958;28;8767;-60
2022/01/02 10:03:04;;;;;;;;;8.75;8.75;;;;;18.42;71.06;101121.50;5073131;28;9448;-60
2022/01/02 10:05:48;;;;;;;;;8.00;8.00;;;;;18.40;71.27;101118.00;5070759;28;9485;-59
2022/01/02 10:08:34;;;;;;;;;12.50;8.75;;;;;18.37;71.57;101117.97;5067472;28;10247;-60
2022/01/02 10:11:03;;;;;;;;;9.75;9.00;;;;;18.37;71.61;101117.13;5072500;28;9669;-61
2022/01/02 10:14:04;;;;;;;;;9.75;7.75;;;;;18.42;71.38;101120.59;5072853;28;9403;-61
2022/01/02 10:16:33;;;;;;;;;12.00;9.50;;;;;18.41;71.53;101118.88;5064724;28;10215;-61
2022/01/02 10:19:26;;;;;;;;;10.00;8.00;;;;;18.37;71.85;101136.50;5071483;28;9458;-61
2022/01/02 10:21:52;;;;;;;;;8.75;7.50;;;;;18.38;71.89;101110.94;5073046;28;9322;-61
2022/01/02 10:24:21;;;;;;;;;7.67;7.33;;;;;18.38;71.79;101113.56;5073275;28;9325;-61
2022/01/02 10:27:21;;;;;;;;;7.33;7.00;;;;;18.40;71.69;101119.75;5072309;28;8780;-61
2022/01/02 10:29:50;;;;;;;;;7.33;5.33;;;;;18.38;71.79;101109.16;5073163;28;9938;-61
2022/01/02 10:32:43;;;;;;;;;8.00;6.67;;;;;18.31;71.99;101110.09;5072594;28;9136;-61
2022/01/02 10:35:22;;;;;;;;;5.67;5.67;;;;;18.37;71.42;101119.78;5063344;28;9175;-61
2022/01/02 10:37:53;;;;;;;;;5.33;4.00;;;;;18.34;71.78;101113.59;5069583;28;9128;-62
2022/01/02 10:40:38;;;;;;;;;8.00;7.67;;;;;18.35;71.60;101119.78;5072889;28;9156;-62
2022/01/02 10:43:31;;;;;;;;;8.00;7.00;;;;;18.43;71.04;101125.00;5072971;28;9244;-62
2022/01/02 10:46:02;;;;;;;;;8.00;7.00;;;;;18.58;70.75;101138.19;5068248;28;9346;-61
2022/01/02 10:48:39;;;;;;;;;8.33;6.67;;;;;18.55;70.22;101128.50;5070093;28;10013;-61
2022/01/02 10:51:24;;;;;;;;;7.00;6.00;;;;;18.52;70.18;101128.50;5072628;28;9303;-61
2022/01/02 10:53:57;;;;;;;;;6.33;4.00;;;;;18.49;70.29;101132.91;5072002;28;9992;-61
2022/01/02 10:56:25;;;;;;;;;5.33;4.67;;;;;18.50;70.15;101134.66;5073140;28;10363;-61
2022/01/02 10:58:51;;;;;;;;;5.67;5.67;;;;;18.53;69.85;101137.31;5069066;28;10790;-61
2022/01/02 11:01:17;;;;;;;;;7.00;6.00;;;;;18.55;69.51;101140.84;5071693;28;9371;-61
2022/01/02 11:03:54;;;;;;;;;6.00;5.33;;;;;18.54;69.43;101136.44;5072188;28;8791;-61
2022/01/02 11:06:27;;;;;;;;;6.33;6.00;;;;;18.56;69.20;101138.16;5072319;28;8791;-61
2022/01/02 11:08:57;;;;;;;;;6.00;6.00;;;;;18.59;69.07;101164.63;5070253;28;9188;-61
2022/01/02 11:11:22;;;;;;;;;7.00;6.00;;;;;18.54;69.29;101142.59;5072739;28;9168;-61
2022/01/02 11:13:48;;;;;;;;;6.33;5.00;;;;;18.53;69.30;101150.53;5071938;28;9189;-61
2022/01/02 11:16:14;;;;;;;;;6.00;6.00;;;;;18.52;68.84;101146.16;5071421;28;8800;-61
2022/01/02 11:18:41;;;;;;;;;8.33;7.67;;;;;18.54;69.12;101145.25;5057626;28;10770;-61
2022/01/02 11:21:10;;;;;;;;;6.00;4.00;;;;;18.51;68.90;101142.63;5052311;28;9516;-61
2022/01/02 11:24:00;;;;;;;;;7.00;5.67;;;;;18.53;68.84;101148.78;5051337;28;9121;-61
2022/01/02 11:26:41;;;;;;;;;4.00;4.00;;;;;18.55;68.85;101154.06;5050376;28;9106;-61
2022/01/02 11:29:07;;;;;;;;;4.67;3.67;;;;;18.55;68.68;101151.41;5043908;28;8866;-61
2022/01/02 11:31:38;;;;;;;;;6.00;5.00;;;;;18.54;68.69;101153.19;5051815;28;8844;-61
2022/01/02 11:34:27;;;;;;;;;5.67;5.33;;;;;18.54;68.80;101152.31;5051884;28;8918;-61
2022/01/02 11:37:13;;;;;;;;;5.67;5.67;;;;;18.51;68.68;101153.22;5047927;28;10478;-61
2022/01/02 11:39:56;;;;;;;;;5.00;5.00;;;;;18.51;68.71;101160.22;5051139;28;9094;-61
2022/01/02 11:42:42;;;;;;;;;4.33;4.00;;;;;18.54;68.41;101165.53;5051937;28;9638;-62